Air Sicilia Virtual Airways - Route

Air Sicilia Virtual Airways - SIC296L

( PT ) LPPS
Porto Santo Airport
VILA BALEIRA ( PXO )
plane_to ( CV ) GVAC
Amílcar Cabral International Airport
ESPARGOS ( SID )
Business Exec World Tour 2018 - LEG: 20

AIRPORT NEAR NAVIGATION AIDS

Type Name Frequency
NDB Porto Santo 338 KHZ
VOR-DME Porto Santo 114900 KHZ
TACAN Porto Santo 116300 KHZ

METAR / TAF
LPPS 201800Z 01013KT 9999 FEW015 20/15 Q1020
LPPS 201700Z 2018/2124 36013KT 9999 SCT015 BKN030 TEMPO 2021/2112 BKN012

RUNWAY INFORMATION

Runway Runway length Runway width Runway elevation Runway displaced threshold Runway heading
01 0 0 240 0 0
19 0 0 341 0 0
18 9861 148 240 0 178
36 9861 148 338 0 358

AIRPORT FREQUENCIES

Type Name Frequency
GCA GCA 123.3 MHZ
TWR TWR 118.4 MHZ

AIRPORT NEAR NAVIGATION AIDS

Type Name Frequency
VOR-DME Sal 115300 KHZ
NDB Sal 274 KHZ

METAR / TAF
GVAC 201800Z 05011KT 9999 SCT014 SCT200 26/17 Q1014 NOSIG
GVAC 201700Z 2018/2124 04010KT 9999 SCT014= LFLX 201700Z 2018/2124 30005KT 9999 SCT030 TEMPO 2018/2020 4000 -SHRA SCT030CB BKN040 BECMG 2021/2024 VRB03KT 3000 BR SCT005 SCT040 TEMPO 2100/2107 0400 FG BKN002 BECMG 2108/2111 34003KT 9999 SCT025 TEMPO 2112/2118 4000 SHRA SCT030CB BKN035 BECMG 2118/2121 VRB03KT CAVOK

RUNWAY INFORMATION

Runway Runway length Runway width Runway elevation Runway displaced threshold Runway heading
01 10735 148 176 885 357.9
19 10735 148 170 0 177.9
07 4921 148 177 0 57.7
25 4921 148 177 0 237.7

AIRPORT FREQUENCIES

Type Name Frequency
A/G A/G 345.2 MHZ
APP SAL APP 119.7 MHZ
TWR TWR 119.7 MHZ

Flightplan

TABOM ORTIS UN728 LOMAS UN873 IPERA B623 PISPU

Air Sicilia Virtual Airways Fleets

AVAILABLE AIRCRAFTS for route at this time in Porto Santo Airport
C550 - Cessna 550 Citation II
( US ) Cessna

Aircraft in fleet: 1

CL30 - BD-100 Challenger 300
( CA ) Bombardier

Aircraft in fleet: 1

LJ35 - Bombardier Learjet 35A
( CA ) Bombardier

Aircraft in fleet: 1

1050 NM

Distance in nautical miles.

€ 250,00

Ticket price for this flight.

Nr. 20

Leg



12-11-2018
Aerosoft Airport Rio de Janeiro International V2.0 XP

L'Aeroporto Internazionale di Rio de Janeiro-Galeão (IATA: GIG, ICAO: SBGL), costruito nel 1952 nel quartiere di Ilha do Governador ed intitolato al musicista Antônio Carlos Jobim, è il principale aeroporto internazio ....


15-10-2018
Aerosoft A320 Family professional

La gamma di aeromobili A320 è una delle più comuni nei cieli. Questi aerei di linea a doppio-getto a corto e medio raggio si sono dimostrati convenienti, affidabili e prontamente disponibili, rendendoli le opzioni migl ....


10-10-2018
Motore critico ( Critical Engine )

Il motore critico di un velivolo ad ala fissa multi-motore è il motore che, in caso di guasto, influirebbe negativamente sulle prestazioni o sulla capacità di manovra di un aereo. Sui velivoli ad elica, vi è un ....


04-10-2018
Aerosoft Dortmund XP

Scopri il centro della regione della Ruhr su XPlane 11 - lo scenario Dortmund XP è una ricostruzione completa della città di Dortmund per il simulatore di volo targato Laminar. Oltre all'intera area urbana di Dortmu ....


07-08-2018
Aerosoft Professional Flight Planner PFPX

PFPX - Professional Flight Planner X - è un nuovo ed innovativo strumento di pianificazione del volo sviluppato da piloti e dispatcher del mondo reale. È un'aggiunta preziosa e realistica alla tua esperienza di simulaz ....